Kezdőlap
METAR-TAF:

METAR-TAF

Repülőterek :

Pangnirtung, Nunavut, Kanada

földrajzi szélesség: 66-09N, földrajzi hosszúság: 065-43W, magasság: 23 m

Jelenlegi meteorológiai megfigyelések

A jelentés 7 órával és 25 perccel ezelõtt készült, 21:00 UTC
Délkeleti szél 8 kt
Hőmérséklet -11°C
Páratartalom 56%
Légköri nyomás 1005 hPa
Látótávolság: 24.1 km
Kevés felhő 3600 lábon
Kevés felhő 6700 lábon

METAR: CYXP 082100Z 14008KT 15SM FEW036 FEW067 M11/M18 A2969 RMK SC1AC1 SC TR S00 AFT 20UTC/LAST STFD OBS/NEXT 091200Z SLP058

Idő: 23:25 (04:25 UTC)

Előrejelzés

A jelentés 9 órával és 47 perccel ezelõtt készült, 18:38 UTC
Az előrejelzés 08-én 19 óra UTC és 08-én 21 óra UTC között érvényes
Keleti szél 8 kt
Látótávolság: 10 km
Szórványos felhőzet 4000 lábon
Szakadozott felhőzet 6000 lábon

TAF: CYXP 081838Z 0819/0821 08008KT P6SM SCT040 BKN060 RMK NXT FCST WILL BE ISSUED AT 091345Z

Meteorológiai megfigyelések és előrejelzések több, mint 4000 repülőtéren (METAR és TAF jelentéseket).

A térképen piros és sárga pontok jelzik az elérhető meteorológiai állomásokat.

Mozgassa az egeret a pont fölött, hogy megjelenjen az állomás neve.

Azután kattintson az időjárási megfigyelések és előrejelzések megtekintéséhez.

A térkép megváltoztatása: kattintson a fekete keresztel jelölt zöld gombra ráközelítéshez, a vonallal jelölt zöld gombra távolításhoz, vagy a zöld nyilakra a szomszédos térképek eléréséhez.


METAR-TAF: